PWSweather.com
Personal Weather Stations
Station Observations
IMAZOWIE6
WarszawaPL

WarszawaPL

Lat: 52.27957, Lon: 21.05489

Elevation: 100

Station Type: WS1080

http://stacjapogody.waw.pl/

High Low Average
Temperature 32.7°F0.4°C 30.4°F-0.9°C 31.8°F-0.1°C
Dew Point -8.9°F-22.7°C -169.8°F-112.1°C -114.1°F-81.2°C
Winds 3.4 mph 5.5 kmh Calm Calm 1.0 mph N1.6 kmh N
Wind Gusts 6.2 mph10.0 kmh 1.4 mph2.3 kmh 3.0 mph4.8 kmh
Humidity 17% 10% 14%
Pressure 29.89 in1012.2 mb 29.85 in1010.8 mb -
Precipitation 0.00 in0.0 mm - -
Hour Temp Dew Point Humidity Winds Wind Gusts Pressure Precip Precip Rate Daily Precip Total
12:02 AM 30.9°F-0.6°C -8.9°F-22.7°C 17% 1.4 mph N2.3 kmh N 2.8 mph4.5 kmh 29.88 in1011.9 mb 0.00 in0.0 mm 0.00 in0.0 mm 0.00 in0.0 mm
12:18 AM 30.6°F-0.8°C -9.2°F-22.9°C 17% 0.6 mph N1.0 kmh N 3.4 mph5.5 kmh 29.88 in1011.9 mb 0.00 in0.0 mm 0.00 in0.0 mm 0.00 in0.0 mm
12:34 AM 30.4°F-0.9°C -9.4°F-23.0°C 17% Calm Calm 1.4 mph2.3 kmh 29.88 in1011.9 mb 0.00 in0.0 mm 0.00 in0.0 mm 0.00 in0.0 mm
12:50 AM 30.4°F-0.9°C -9.4°F-23.0°C 17% 1.4 mph N2.3 kmh N 3.4 mph5.5 kmh 29.88 in1011.9 mb 0.00 in0.0 mm 0.00 in0.0 mm 0.00 in0.0 mm
01:06 AM 30.4°F-0.9°C -9.4°F-23.0°C 17% 0.6 mph N1.0 kmh N 2.8 mph4.5 kmh 29.88 in1011.9 mb 0.00 in0.0 mm 0.00 in0.0 mm 0.00 in0.0 mm
01:17 AM 30.4°F-0.9°C -9.4°F-23.0°C 17% 1.4 mph N2.3 kmh N 4.0 mph6.4 kmh 29.88 in1011.9 mb 0.00 in0.0 mm 0.00 in0.0 mm 0.00 in0.0 mm
01:33 AM 30.6°F-0.8°C -9.2°F-22.9°C 17% 0.6 mph N1.0 kmh N 3.4 mph5.5 kmh 29.88 in1011.9 mb 0.00 in0.0 mm 0.00 in0.0 mm 0.00 in0.0 mm
01:49 AM 30.6°F-0.8°C -9.2°F-22.9°C 17% 2.0 mph N3.2 kmh N 5.4 mph8.7 kmh 29.88 in1011.9 mb 0.00 in0.0 mm 0.00 in0.0 mm 0.00 in0.0 mm
02:05 AM 30.6°F-0.8°C -9.2°F-22.9°C 17% 0.6 mph N1.0 kmh N 2.0 mph3.2 kmh 29.87 in1011.5 mb 0.00 in0.0 mm 0.00 in0.0 mm 0.00 in0.0 mm
02:21 AM 30.7°F-0.7°C -9.1°F-22.8°C 17% 1.4 mph N2.3 kmh N 4.0 mph6.4 kmh 29.87 in1011.5 mb 0.00 in0.0 mm 0.00 in0.0 mm 0.00 in0.0 mm
02:37 AM 30.7°F-0.7°C -9.1°F-22.8°C 17% 1.4 mph N2.3 kmh N 4.0 mph6.4 kmh 29.87 in1011.5 mb 0.00 in0.0 mm 0.00 in0.0 mm 0.00 in0.0 mm
02:47 AM 30.9°F-0.6°C -10.2°F-23.4°C 16% 1.4 mph N2.3 kmh N 4.8 mph7.7 kmh 29.87 in1011.5 mb 0.00 in0.0 mm 0.00 in0.0 mm 0.00 in0.0 mm
03:03 AM 30.9°F-0.6°C -10.2°F-23.4°C 16% 1.4 mph N2.3 kmh N 4.0 mph6.4 kmh 29.87 in1011.5 mb 0.00 in0.0 mm 0.00 in0.0 mm 0.00 in0.0 mm
03:19 AM 31.1°F-0.5°C -10.0°F-23.3°C 16% 1.4 mph N2.3 kmh N 4.8 mph7.7 kmh 29.87 in1011.5 mb 0.00 in0.0 mm 0.00 in0.0 mm 0.00 in0.0 mm
03:35 AM 31.1°F-0.5°C -11.3°F-24.1°C 15% 1.4 mph N2.3 kmh N 3.4 mph5.5 kmh 29.87 in1011.5 mb 0.00 in0.0 mm 0.00 in0.0 mm 0.00 in0.0 mm
03:51 AM 31.1°F-0.5°C -11.3°F-24.1°C 15% 2.8 mph N4.5 kmh N 4.8 mph7.7 kmh 29.87 in1011.5 mb 0.00 in0.0 mm 0.00 in0.0 mm 0.00 in0.0 mm
04:02 AM 31.1°F-0.5°C -11.3°F-24.1°C 15% 2.0 mph N3.2 kmh N 4.0 mph6.4 kmh 29.87 in1011.5 mb 0.00 in0.0 mm 0.00 in0.0 mm 0.00 in0.0 mm
04:18 AM 30.9°F-0.6°C -11.4°F-24.1°C 15% 2.0 mph N3.2 kmh N 6.2 mph10.0 kmh 29.87 in1011.5 mb 0.00 in0.0 mm 0.00 in0.0 mm 0.00 in0.0 mm
04:33 AM 31.1°F-0.5°C -11.3°F-24.1°C 15% 0.6 mph N1.0 kmh N 2.8 mph4.5 kmh 29.87 in1011.5 mb 0.00 in0.0 mm 0.00 in0.0 mm 0.00 in0.0 mm
04:48 AM 30.9°F-0.6°C -12.8°F-24.9°C 14% 2.0 mph N3.2 kmh N 3.4 mph5.5 kmh 29.87 in1011.5 mb 0.00 in0.0 mm 0.00 in0.0 mm 0.00 in0.0 mm
05:03 AM 30.9°F-0.6°C -12.8°F-24.9°C 14% 0.6 mph N1.0 kmh N 2.8 mph4.5 kmh 29.87 in1011.5 mb 0.00 in0.0 mm 0.00 in0.0 mm 0.00 in0.0 mm
05:18 AM 30.9°F-0.6°C -14.2°F-25.7°C 13% 1.4 mph N2.3 kmh N 2.8 mph4.5 kmh 29.87 in1011.5 mb 0.00 in0.0 mm 0.00 in0.0 mm 0.00 in0.0 mm
05:33 AM 30.7°F-0.7°C -14.4°F-25.8°C 13% Calm Calm 2.8 mph4.5 kmh 29.86 in1011.2 mb 0.00 in0.0 mm 0.00 in0.0 mm 0.00 in0.0 mm
05:48 AM 30.7°F-0.7°C -14.4°F-25.8°C 13% 1.4 mph N2.3 kmh N 3.4 mph5.5 kmh 29.87 in1011.5 mb 0.00 in0.0 mm 0.00 in0.0 mm 0.00 in0.0 mm
06:03 AM 30.6°F-0.8°C -16.1°F-26.7°C 12% 0.6 mph N1.0 kmh N 2.0 mph3.2 kmh 29.87 in1011.5 mb 0.00 in0.0 mm 0.00 in0.0 mm 0.00 in0.0 mm
06:18 AM 30.7°F-0.7°C -15.9°F-26.6°C 12% 1.4 mph N2.3 kmh N 2.8 mph4.5 kmh 29.87 in1011.5 mb 0.00 in0.0 mm 0.00 in0.0 mm 0.00 in0.0 mm
06:33 AM 30.6°F-0.8°C -17.7°F-27.6°C 11% 2.0 mph N3.2 kmh N 4.8 mph7.7 kmh 29.88 in1011.9 mb 0.00 in0.0 mm 0.00 in0.0 mm 0.00 in0.0 mm
06:48 AM 30.7°F-0.7°C -19.4°F-28.6°C 10% 1.4 mph N2.3 kmh N 3.4 mph5.5 kmh 29.88 in1011.9 mb 0.00 in0.0 mm 0.00 in0.0 mm 0.00 in0.0 mm
07:03 AM 30.6°F-0.8°C -19.5°F-28.6°C 10% 0.6 mph N1.0 kmh N 4.8 mph7.7 kmh 29.88 in1011.9 mb 0.00 in0.0 mm 0.00 in0.0 mm 0.00 in0.0 mm
07:18 AM 30.6°F-0.8°C -19.5°F-28.6°C 10% 1.4 mph N2.3 kmh N 3.4 mph5.5 kmh 29.88 in1011.9 mb 0.00 in0.0 mm 0.00 in0.0 mm 0.00 in0.0 mm
07:33 AM 30.6°F-0.8°C -19.5°F-28.6°C 10% 2.0 mph N3.2 kmh N 4.0 mph6.4 kmh 29.88 in1011.9 mb 0.00 in0.0 mm 0.00 in0.0 mm 0.00 in0.0 mm
07:48 AM 30.6°F-0.8°C -19.5°F-28.6°C 10% 1.4 mph N2.3 kmh N 4.0 mph6.4 kmh 29.88 in1011.9 mb 0.00 in0.0 mm 0.00 in0.0 mm 0.00 in0.0 mm
08:03 AM 30.6°F-0.8°C -19.5°F-28.6°C 10% 2.0 mph N3.2 kmh N 4.8 mph7.7 kmh 29.89 in1012.2 mb 0.00 in0.0 mm 0.00 in0.0 mm 0.00 in0.0 mm
08:18 AM 30.6°F-0.8°C -19.5°F-28.6°C 10% Calm Calm 2.8 mph4.5 kmh 29.88 in1011.9 mb 0.00 in0.0 mm 0.00 in0.0 mm 0.00 in0.0 mm
08:33 AM 30.4°F-0.9°C -169.8°F-112.1°C - 0.6 mph N1.0 kmh N 3.4 mph5.5 kmh 29.89 in1012.2 mb 0.00 in0.0 mm 0.00 in0.0 mm 0.00 in0.0 mm
08:48 AM 30.7°F-0.7°C -169.7°F-112.1°C - 1.4 mph N2.3 kmh N 3.4 mph5.5 kmh 29.88 in1011.9 mb 0.00 in0.0 mm 0.00 in0.0 mm 0.00 in0.0 mm
09:03 AM 31.1°F-0.5°C -169.7°F-112.1°C - 2.8 mph N4.5 kmh N 6.2 mph10.0 kmh 29.88 in1011.9 mb 0.00 in0.0 mm 0.00 in0.0 mm 0.00 in0.0 mm
09:18 AM 30.4°F-0.9°C -169.8°F-112.1°C - 2.0 mph N3.2 kmh N 6.2 mph10.0 kmh 29.89 in1012.2 mb 0.00 in0.0 mm 0.00 in0.0 mm 0.00 in0.0 mm
09:33 AM 30.6°F-0.8°C -169.7°F-112.1°C - 2.0 mph N3.2 kmh N 5.4 mph8.7 kmh 29.89 in1012.2 mb 0.00 in0.0 mm 0.00 in0.0 mm 0.00 in0.0 mm
09:48 AM 31.5°F-0.3°C -169.7°F-112.1°C - 3.4 mph N5.5 kmh N 5.4 mph8.7 kmh 29.89 in1012.2 mb 0.00 in0.0 mm 0.00 in0.0 mm 0.00 in0.0 mm
10:03 AM 32.7°F0.4°C -169.5°F-111.9°C - 1.4 mph N2.3 kmh N 4.0 mph6.4 kmh 29.89 in1012.2 mb 0.00 in0.0 mm 0.00 in0.0 mm 0.00 in0.0 mm
10:18 AM 32.7°F0.4°C -169.5°F-111.9°C - 2.0 mph N3.2 kmh N 4.8 mph7.7 kmh 29.89 in1012.2 mb 0.00 in0.0 mm 0.00 in0.0 mm 0.00 in0.0 mm
10:33 AM 31.8°F-0.1°C -169.6°F-112.0°C - 2.0 mph N3.2 kmh N 5.4 mph8.7 kmh 29.89 in1012.2 mb 0.00 in0.0 mm 0.00 in0.0 mm 0.00 in0.0 mm
10:48 AM 31.6°F-0.2°C -169.6°F-112.0°C - Calm Calm 4.0 mph6.4 kmh 29.89 in1012.2 mb 0.00 in0.0 mm 0.00 in0.0 mm 0.00 in0.0 mm
11:03 AM 31.6°F-0.2°C -169.6°F-112.0°C - 0.6 mph N1.0 kmh N 4.0 mph6.4 kmh 29.89 in1012.2 mb 0.00 in0.0 mm 0.00 in0.0 mm 0.00 in0.0 mm
11:18 AM 31.5°F-0.3°C -169.7°F-112.1°C - 2.0 mph N3.2 kmh N 5.4 mph8.7 kmh 29.89 in1012.2 mb 0.00 in0.0 mm 0.00 in0.0 mm 0.00 in0.0 mm
11:33 AM 32.2°F0.1°C -169.6°F-112.0°C - 0.6 mph N1.0 kmh N 3.4 mph5.5 kmh 29.88 in1011.9 mb 0.00 in0.0 mm 0.00 in0.0 mm 0.00 in0.0 mm
11:48 AM 32.0°F0.0°C -169.6°F-112.0°C - 2.0 mph N3.2 kmh N 5.4 mph8.7 kmh 29.87 in1011.5 mb 0.00 in0.0 mm 0.00 in0.0 mm 0.00 in0.0 mm
12:03 PM 32.0°F0.0°C -169.6°F-112.0°C - 0.6 mph N1.0 kmh N 1.4 mph2.3 kmh 29.87 in1011.5 mb 0.00 in0.0 mm 0.00 in0.0 mm 0.00 in0.0 mm
12:18 PM 32.0°F0.0°C -169.6°F-112.0°C - 1.4 mph N2.3 kmh N 3.4 mph5.5 kmh 29.87 in1011.5 mb 0.00 in0.0 mm 0.00 in0.0 mm 0.00 in0.0 mm
12:33 PM 32.4°F0.2°C -169.6°F-112.0°C - 0.6 mph N1.0 kmh N 3.4 mph5.5 kmh 29.86 in1011.2 mb 0.00 in0.0 mm 0.00 in0.0 mm 0.00 in0.0 mm
12:48 PM 32.4°F0.2°C -169.6°F-112.0°C - 0.6 mph N1.0 kmh N 4.0 mph6.4 kmh 29.87 in1011.5 mb 0.00 in0.0 mm 0.00 in0.0 mm 0.00 in0.0 mm
01:03 PM 32.5°F0.3°C -169.5°F-111.9°C - 0.6 mph N1.0 kmh N 2.8 mph4.5 kmh 29.86 in1011.2 mb 0.00 in0.0 mm 0.00 in0.0 mm 0.00 in0.0 mm
01:18 PM 32.5°F0.3°C -169.5°F-111.9°C - 1.4 mph N2.3 kmh N 4.0 mph6.4 kmh 29.86 in1011.2 mb 0.00 in0.0 mm 0.00 in0.0 mm 0.00 in0.0 mm
01:33 PM 32.5°F0.3°C -169.5°F-111.9°C - Calm Calm 2.8 mph4.5 kmh 29.85 in1010.8 mb 0.00 in0.0 mm 0.00 in0.0 mm 0.00 in0.0 mm
01:48 PM 32.7°F0.4°C -169.5°F-111.9°C - 0.6 mph N1.0 kmh N 2.8 mph4.5 kmh 29.85 in1010.8 mb 0.00 in0.0 mm 0.00 in0.0 mm 0.00 in0.0 mm
02:03 PM 32.7°F0.4°C -169.5°F-111.9°C - Calm Calm 2.0 mph3.2 kmh 29.85 in1010.8 mb 0.00 in0.0 mm 0.00 in0.0 mm 0.00 in0.0 mm
02:16 PM 32.7°F0.4°C -169.5°F-111.9°C - Calm Calm 2.0 mph3.2 kmh 29.85 in1010.8 mb 0.00 in0.0 mm 0.00 in0.0 mm 0.00 in0.0 mm
02:31 PM 32.7°F0.4°C -169.5°F-111.9°C - Calm Calm 2.0 mph3.2 kmh 29.85 in1010.8 mb 0.00 in0.0 mm 0.00 in0.0 mm 0.00 in0.0 mm
02:46 PM 32.7°F0.4°C -169.5°F-111.9°C - Calm Calm 2.0 mph3.2 kmh 29.85 in1010.8 mb 0.00 in0.0 mm 0.00 in0.0 mm 0.00 in0.0 mm
03:01 PM 32.7°F0.4°C -169.5°F-111.9°C - Calm Calm 2.0 mph3.2 kmh 29.85 in1010.8 mb 0.00 in0.0 mm 0.00 in0.0 mm 0.00 in0.0 mm
03:16 PM 32.7°F0.4°C -169.5°F-111.9°C - Calm Calm 2.0 mph3.2 kmh 29.85 in1010.8 mb 0.00 in0.0 mm 0.00 in0.0 mm 0.00 in0.0 mm
03:31 PM 32.7°F0.4°C -169.5°F-111.9°C - Calm Calm 2.0 mph3.2 kmh 29.85 in1010.8 mb 0.00 in0.0 mm 0.00 in0.0 mm 0.00 in0.0 mm
03:46 PM 32.7°F0.4°C -169.5°F-111.9°C - Calm Calm 2.0 mph3.2 kmh 29.85 in1010.8 mb 0.00 in0.0 mm 0.00 in0.0 mm 0.00 in0.0 mm
04:01 PM 32.7°F0.4°C -169.5°F-111.9°C - Calm Calm 2.0 mph3.2 kmh 29.85 in1010.8 mb 0.00 in0.0 mm 0.00 in0.0 mm 0.00 in0.0 mm
04:16 PM 32.7°F0.4°C -169.5°F-111.9°C - Calm Calm 2.0 mph3.2 kmh 29.85 in1010.8 mb 0.00 in0.0 mm 0.00 in0.0 mm 0.00 in0.0 mm
04:31 PM 32.7°F0.4°C -169.5°F-111.9°C - Calm Calm 2.0 mph3.2 kmh 29.85 in1010.8 mb 0.00 in0.0 mm 0.00 in0.0 mm 0.00 in0.0 mm
04:46 PM 32.7°F0.4°C -169.5°F-111.9°C - Calm Calm 2.0 mph3.2 kmh 29.85 in1010.8 mb 0.00 in0.0 mm 0.00 in0.0 mm 0.00 in0.0 mm
05:01 PM 32.7°F0.4°C -169.5°F-111.9°C - Calm Calm 2.0 mph3.2 kmh 29.85 in1010.8 mb 0.00 in0.0 mm 0.00 in0.0 mm 0.00 in0.0 mm
05:16 PM 32.7°F0.4°C -169.5°F-111.9°C - Calm Calm 2.0 mph3.2 kmh 29.85 in1010.8 mb 0.00 in0.0 mm 0.00 in0.0 mm 0.00 in0.0 mm
05:31 PM 32.7°F0.4°C -169.5°F-111.9°C - Calm Calm 2.0 mph3.2 kmh 29.85 in1010.8 mb 0.00 in0.0 mm 0.00 in0.0 mm 0.00 in0.0 mm
05:46 PM 32.7°F0.4°C -169.5°F-111.9°C - Calm Calm 2.0 mph3.2 kmh 29.85 in1010.8 mb 0.00 in0.0 mm 0.00 in0.0 mm 0.00 in0.0 mm
06:01 PM 32.7°F0.4°C -169.5°F-111.9°C - Calm Calm 2.0 mph3.2 kmh 29.85 in1010.8 mb 0.00 in0.0 mm 0.00 in0.0 mm 0.00 in0.0 mm
06:16 PM 32.7°F0.4°C -169.5°F-111.9°C - Calm Calm 2.0 mph3.2 kmh 29.85 in1010.8 mb 0.00 in0.0 mm 0.00 in0.0 mm 0.00 in0.0 mm
06:31 PM 32.7°F0.4°C -169.5°F-111.9°C - Calm Calm 2.0 mph3.2 kmh 29.85 in1010.8 mb 0.00 in0.0 mm 0.00 in0.0 mm 0.00 in0.0 mm
06:46 PM 32.7°F0.4°C -169.5°F-111.9°C - Calm Calm 2.0 mph3.2 kmh 29.85 in1010.8 mb 0.00 in0.0 mm 0.00 in0.0 mm 0.00 in0.0 mm
07:01 PM 32.7°F0.4°C -169.5°F-111.9°C - Calm Calm 2.0 mph3.2 kmh 29.85 in1010.8 mb 0.00 in0.0 mm 0.00 in0.0 mm 0.00 in0.0 mm
07:16 PM 32.7°F0.4°C -169.5°F-111.9°C - Calm Calm 2.0 mph3.2 kmh 29.85 in1010.8 mb 0.00 in0.0 mm 0.00 in0.0 mm 0.00 in0.0 mm
07:31 PM 32.7°F0.4°C -169.5°F-111.9°C - Calm Calm 2.0 mph3.2 kmh 29.85 in1010.8 mb 0.00 in0.0 mm 0.00 in0.0 mm 0.00 in0.0 mm
07:46 PM 32.7°F0.4°C -169.5°F-111.9°C - Calm Calm 2.0 mph3.2 kmh 29.85 in1010.8 mb 0.00 in0.0 mm 0.00 in0.0 mm 0.00 in0.0 mm
08:04 PM 32.7°F0.4°C -169.5°F-111.9°C - Calm Calm 2.0 mph3.2 kmh 29.85 in1010.8 mb 0.00 in0.0 mm 0.00 in0.0 mm 0.00 in0.0 mm
08:16 PM 32.7°F0.4°C -169.5°F-111.9°C - Calm Calm 2.0 mph3.2 kmh 29.85 in1010.8 mb 0.00 in0.0 mm 0.00 in0.0 mm 0.00 in0.0 mm
08:31 PM 32.7°F0.4°C -169.5°F-111.9°C - Calm Calm 2.0 mph3.2 kmh 29.85 in1010.8 mb 0.00 in0.0 mm 0.00 in0.0 mm 0.00 in0.0 mm
08:46 PM 32.7°F0.4°C -169.5°F-111.9°C - Calm Calm 2.0 mph3.2 kmh 29.85 in1010.8 mb 0.00 in0.0 mm 0.00 in0.0 mm 0.00 in0.0 mm
09:01 PM 32.7°F0.4°C -169.5°F-111.9°C - Calm Calm 2.0 mph3.2 kmh 29.85 in1010.8 mb 0.00 in0.0 mm 0.00 in0.0 mm 0.00 in0.0 mm
09:16 PM 32.7°F0.4°C -169.5°F-111.9°C - Calm Calm 2.0 mph3.2 kmh 29.85 in1010.8 mb 0.00 in0.0 mm 0.00 in0.0 mm 0.00 in0.0 mm
09:31 PM 32.7°F0.4°C -169.5°F-111.9°C - Calm Calm 2.0 mph3.2 kmh 29.85 in1010.8 mb 0.00 in0.0 mm 0.00 in0.0 mm 0.00 in0.0 mm
09:46 PM 32.7°F0.4°C -169.5°F-111.9°C - Calm Calm 2.0 mph3.2 kmh 29.85 in1010.8 mb 0.00 in0.0 mm 0.00 in0.0 mm 0.00 in0.0 mm
10:01 PM 32.7°F0.4°C -169.5°F-111.9°C - Calm Calm 2.0 mph3.2 kmh 29.85 in1010.8 mb 0.00 in0.0 mm 0.00 in0.0 mm 0.00 in0.0 mm
10:16 PM 32.7°F0.4°C -169.5°F-111.9°C - Calm Calm 2.0 mph3.2 kmh 29.85 in1010.8 mb 0.00 in0.0 mm 0.00 in0.0 mm 0.00 in0.0 mm
10:31 PM 32.7°F0.4°C -169.5°F-111.9°C - Calm Calm 2.0 mph3.2 kmh 29.85 in1010.8 mb 0.00 in0.0 mm 0.00 in0.0 mm 0.00 in0.0 mm
10:46 PM 32.7°F0.4°C -169.5°F-111.9°C - Calm Calm 2.0 mph3.2 kmh 29.85 in1010.8 mb 0.00 in0.0 mm 0.00 in0.0 mm 0.00 in0.0 mm
11:01 PM 32.7°F0.4°C -169.5°F-111.9°C - Calm Calm 2.0 mph3.2 kmh 29.85 in1010.8 mb 0.00 in0.0 mm 0.00 in0.0 mm 0.00 in0.0 mm
11:16 PM 32.7°F0.4°C -169.5°F-111.9°C - Calm Calm 2.0 mph3.2 kmh 29.85 in1010.8 mb 0.00 in0.0 mm 0.00 in0.0 mm 0.00 in0.0 mm
11:31 PM 32.7°F0.4°C -169.5°F-111.9°C - Calm Calm 2.0 mph3.2 kmh 29.85 in1010.8 mb 0.00 in0.0 mm 0.00 in0.0 mm 0.00 in0.0 mm
11:46 PM 32.7°F0.4°C -169.5°F-111.9°C - Calm Calm 2.0 mph3.2 kmh 29.85 in1010.8 mb 0.00 in0.0 mm 0.00 in0.0 mm 0.00 in0.0 mm